Time;durP1;ratioP1;P1;durP2;ratioP2;P2;SDS_P1;SDS_P2;PMS_P1;PMS_P2;Temp;Humidity;BMP_temperature;BMP_pressure;BME280_temperature;BME280_humidity;BME280_pressure;Samples;Min_cycle;Max_cycle;Signal;HPM_P1;HPM_P2
2022/10/20 00:00:22;;;;;;;14.93;8.25;;;;;;;6.11;86.26;94967.62;1516940;93;21041;-50
2022/10/20 00:02:49;;;;;;;10.60;6.72;;;;;;;6.04;86.22;94977.30;1544023;92;21012;-50
2022/10/20 00:05:16;;;;;;;7.95;5.72;;;;;;;5.94;85.99;94980.36;1574160;89;21056;-52
2022/10/20 00:07:44;;;;;;;7.12;4.83;;;;;;;5.82;86.08;94971.96;1578106;90;21069;-52
2022/10/20 00:10:11;;;;;;;6.62;4.28;;;;;;;5.77;86.53;94979.98;1558959;90;21161;-52
2022/10/20 00:12:39;;;;;;;3.85;3.58;;;;;;;5.79;87.12;94971.42;1577767;89;21128;-52
2022/10/20 00:15:08;;;;;;;4.17;3.87;;;;;;;5.84;87.35;94983.23;1575326;90;21148;-57
2022/10/20 00:17:35;;;;;;;6.92;4.60;;;;;;;5.89;87.55;94977.31;1574012;90;21007;-50
2022/10/20 00:20:03;;;;;;;10.90;5.92;;;;;;;5.95;87.54;94979.78;1539601;92;21172;-52
2022/10/20 00:22:31;;;;;;;16.75;9.10;;;;;;;5.97;87.41;94975.44;1578700;90;21643;-53
2022/10/20 00:24:59;;;;;;;20.45;11.53;;;;;;;6.00;87.40;94968.39;1554131;89;21091;-51
2022/10/20 00:27:25;;;;;;;15.75;9.05;;;;;;;6.03;87.46;94976.54;1576535;90;21150;-51
2022/10/20 00:29:52;;;;;;;11.10;5.65;;;;;;;6.06;87.37;94977.08;1518339;92;21095;-52
2022/10/20 00:32:19;;;;;;;4.42;3.92;;;;;;;6.02;87.10;94979.09;1522838;92;21339;-50
2022/10/20 00:34:46;;;;;;;4.28;3.98;;;;;;;5.96;87.35;94975.86;1577598;89;21217;-50
2022/10/20 00:37:13;;;;;;;3.95;3.60;;;;;;;5.92;87.66;94978.64;1574846;89;21211;-51
2022/10/20 00:39:40;;;;;;;3.70;3.40;;;;;;;5.96;87.95;94967.67;1581868;90;21621;-52
2022/10/20 00:42:08;;;;;;;4.22;3.60;;;;;;;6.01;88.02;94969.33;1545418;92;21010;-51
2022/10/20 00:44:55;;;;;;;4.28;3.87;;;;;;;6.01;87.57;94965.23;1556858;90;21875;-50
2022/10/20 00:47:45;;;;;;;9.20;5.67;;;;;;;6.01;87.98;94971.30;1575315;90;21509;-52
2022/10/20 00:50:16;;;;;;;12.95;7.40;;;;;;;5.98;87.60;94974.86;1578673;90;21150;-50
2022/10/20 00:52:43;;;;;;;12.63;7.33;;;;;;;5.99;87.97;94966.84;1577000;89;21070;-52
2022/10/20 00:55:14;;;;;;;15.10;8.78;;;;;;;6.03;87.94;94975.75;1553726;89;21149;-50
2022/10/20 00:57:45;;;;;;;17.75;9.75;;;;;;;6.11;87.97;94963.53;1535400;90;21294;-51
2022/10/20 01:00:14;;;;;;;16.07;8.98;;;;;;;6.18;87.92;94970.27;1563041;90;21087;-51
2022/10/20 01:02:43;;;;;;;10.70;6.15;;;;;;;6.18;87.66;94965.56;1581737;90;21561;-49
2022/10/20 01:05:10;;;;;;;6.55;5.22;;;;;;;6.20;87.79;94962.42;1572036;90;21152;-51
2022/10/20 01:07:39;;;;;;;7.95;5.10;;;;;;;6.24;88.01;94967.23;1581429;90;21244;-52
2022/10/20 01:10:08;;;;;;;4.40;4.00;;;;;;;6.25;87.52;94973.67;1577236;89;21371;-50
2022/10/20 01:12:58;;;;;;;4.37;4.08;;;;;;;6.21;87.17;94972.17;1576384;90;21173;-50
2022/10/20 01:15:39;;;;;;;4.08;3.72;;;;;;;6.15;87.14;94976.56;1541395;92;21174;-53
2022/10/20 01:18:18;;;;;;;5.25;3.62;;;;;;;6.12;87.47;94989.68;1514335;93;21027;-51
2022/10/20 01:21:29;;;;;;;3.70;3.50;;;;;;;6.11;87.67;95016.20;1547085;92;21031;-51
2022/10/20 01:24:04;;;;;;;3.90;3.60;;;;;;;6.11;88.27;95016.78;1505735;91;21413;-51
2022/10/20 01:27:02;;;;;;;4.15;3.47;;;;;;;6.13;88.52;95015.80;1535457;92;21104;-50
2022/10/20 01:29:44;;;;;;;3.60;3.30;;;;;;;6.19;88.50;95011.41;1577229;90;21117;-51
2022/10/20 01:32:37;;;;;;;3.95;3.47;;;;;;;6.28;87.83;95018.48;1557820;90;21188;-50
2022/10/20 01:35:09;;;;;;;30.70;16.33;;;;;;;6.30;87.43;95015.53;1576310;90;21107;-50
2022/10/20 01:37:52;;;;;;;11.88;7.45;;;;;;;6.29;87.76;95025.50;1574168;89;21148;-51
2022/10/20 01:40:36;;;;;;;8.45;6.28;;;;;;;6.30;87.80;95021.61;1583004;90;21007;-50
2022/10/20 01:43:09;;;;;;;7.50;5.65;;;;;;;6.30;87.80;95032.54;1551430;89;21327;-51
2022/10/20 01:45:38;;;;;;;16.30;11.10;;;;;;;6.22;87.71;95026.98;1549168;90;22157;-51
2022/10/20 01:48:06;;;;;;;8.63;6.42;;;;;;;6.17;87.96;95020.02;1572522;89;21791;-51
2022/10/20 01:50:34;;;;;;;21.80;11.90;;;;;;;6.12;87.74;95025.19;1535177;91;21252;-51
2022/10/20 01:53:01;;;;;;;25.65;14.45;;;;;;;6.02;87.98;95027.45;1509199;93;21035;-51
2022/10/20 01:55:28;;;;;;;15.38;9.58;;;;;;;5.98;87.93;95032.20;1552683;89;21232;-50
2022/10/20 01:58:04;;;;;;;46.85;24.92;;;;;;;5.89;87.63;95030.55;1531867;92;21143;-50
2022/10/20 02:00:31;;;;;;;10.03;7.22;;;;;;;5.80;87.70;95040.61;1519033;93;21171;-51
2022/10/20 02:03:35;;;;;;;44.33;24.05;;;;;;;5.80;87.60;95037.88;1575739;90;21178;-51
2022/10/20 02:06:17;;;;;;;8.68;6.95;;;;;;;5.78;87.14;95038.09;1579214;90;21086;-51
2022/10/20 02:08:47;;;;;;;;;;;;;;;5.72;86.92;95043.22;1537249;92;21163;-51
2022/10/20 02:11:22;;;;;;;4.85;4.45;;;;;;;5.63;86.75;95035.34;1506462;94;20443;-50
2022/10/20 02:13:51;;;;;;;5.20;4.10;;;;;;;5.53;86.93;95032.14;1520165;92;21107;-51
2022/10/20 02:16:26;;;;;;;4.20;3.90;;;;;;;5.47;87.23;95035.14;1514981;93;21858;-51
2022/10/20 02:18:53;;;;;;;4.45;4.05;;;;;;;5.46;87.56;95032.23;1524355;93;21239;-51
2022/10/20 02:21:20;;;;;;;6.25;5.67;;;;;;;5.49;88.06;95030.84;1542957;92;21089;-51
2022/10/20 02:23:49;;;;;;;6.70;5.03;;;;;;;5.53;88.23;95030.77;1534485;91;20992;-51
2022/10/20 02:26:18;;;;;;;5.37;4.40;;;;;;;5.58;88.67;95030.34;1519440;92;21015;-50
2022/10/20 02:28:50;;;;;;;6.58;5.40;;;;;;;5.69;88.75;95030.97;1540791;91;21181;-52
2022/10/20 02:31:17;;;;;;;7.92;6.30;;;;;;;5.73;88.53;95039.88;1578421;89;21050;-50
2022/10/20 02:33:45;;;;;;;7.97;6.20;;;;;;;5.69;88.36;95045.41;1574191;89;21158;-51
2022/10/20 02:36:18;;;;;;;9.13;6.37;;;;;;;5.71;88.35;95039.52;1553400;90;21132;-51
2022/10/20 02:38:45;;;;;;;;;;;;;;;5.75;88.65;95040.28;1565792;90;21483;-51
2022/10/20 02:41:12;;;;;;;5.30;4.53;;;;;;;5.79;88.40;95042.39;1572302;89;22055;-50
2022/10/20 02:43:39;;;;;;;6.25;4.40;;;;;;;5.82;88.36;95044.30;1576717;89;21164;-52
2022/10/20 02:46:07;;;;;;;5.08;4.58;;;;;;;5.82;87.94;95049.16;1578644;90;21035;-52
2022/10/20 02:48:37;;;;;;;4.67;4.10;;;;;;;5.80;87.77;95052.13;1582672;90;21114;-51
2022/10/20 02:51:06;;;;;;;4.20;3.90;;;;;;;5.77;87.85;95044.73;1571254;90;21579;-51
2022/10/20 02:53:33;;;;;;;3.90;3.60;;;;;;;5.77;87.92;95050.19;1581345;90;21103;-51
2022/10/20 02:56:00;;;;;;;4.33;3.92;;;;;;;5.77;87.95;95050.19;1578758;89;21615;-50
2022/10/20 02:58:27;;;;;;;4.72;4.33;;;;;;;5.82;88.51;95055.22;1582349;89;21071;-50
2022/10/20 03:00:54;;;;;;;6.62;4.37;;;;;;;5.93;88.75;95060.73;1571873;90;21089;-51
2022/10/20 03:03:21;;;;;;;5.17;4.25;;;;;;;5.97;88.20;95062.81;1554453;90;21067;-50
2022/10/20 03:05:48;;;;;;;5.78;5.05;;;;;;;5.94;87.98;95069.70;1571961;89;21112;-51
2022/10/20 03:08:17;;;;;;;8.73;6.55;;;;;;;5.93;88.14;95074.98;1576862;90;21114;-50
2022/10/20 03:10:43;;;;;;;7.08;6.17;;;;;;;5.91;88.04;95080.05;1582111;90;21083;-51
2022/10/20 03:13:10;;;;;;;11.35;7.62;;;;;;;5.89;88.39;95082.42;1582631;90;21078;-50
2022/10/20 03:15:37;;;;;;;15.05;8.75;;;;;;;5.92;88.67;95080.23;1578670;90;21146;-53
2022/10/20 03:18:04;;;;;;;16.82;9.93;;;;;;;5.98;88.58;95088.18;1579341;90;21108;-52
2022/10/20 03:20:32;;;;;;;23.67;13.98;;;;;;;5.98;88.33;95086.81;1581468;90;21170;-52
2022/10/20 03:23:00;;;;;;;25.02;15.03;;;;;;;5.97;88.08;95087.39;1574765;89;21225;-53
2022/10/20 03:25:27;;;;;;;25.40;13.50;;;;;;;5.91;87.80;95097.80;1580394;89;21030;-51
2022/10/20 03:27:54;;;;;;;18.15;11.15;;;;;;;5.86;87.91;95102.35;1553508;90;21118;-50
2022/10/20 03:30:21;;;;;;;15.05;10.68;;;;;;;5.83;88.07;95101.81;1575889;90;21195;-51
2022/10/20 03:32:48;;;;;;;13.70;8.98;;;;;;;5.77;87.92;95087.05;1577977;89;21039;-51
2022/10/20 03:35:17;;;;;;;9.40;7.37;;;;;;;5.68;88.02;95096.30;1580472;90;21034;-51
2022/10/20 03:37:43;;;;;;;9.40;7.45;;;;;;;5.66;88.28;95095.93;1541018;92;21038;-51
2022/10/20 03:40:11;;;;;;;11.22;9.30;;;;;;;5.70;88.67;95096.66;1478893;94;21054;-51
2022/10/20 03:42:38;;;;;;;12.55;7.42;;;;;;;5.74;88.65;95094.66;1511986;93;21201;-50
2022/10/20 03:45:07;;;;;;;9.68;6.78;;;;;;;5.76;88.38;95096.41;1548306;92;21495;-51
2022/10/20 03:47:34;;;;;;;10.23;8.35;;;;;;;5.76;88.46;95100.51;1547249;91;21103;-50
2022/10/20 03:50:01;;;;;;;26.70;19.90;;;;;;;5.79;88.34;95093.66;1577177;89;21126;-51
2022/10/20 03:52:29;;;;;;;15.25;11.38;;;;;;;5.86;88.51;95096.89;1571435;89;21050;-51
2022/10/20 03:54:56;;;;;;;13.40;10.40;;;;;;;5.97;88.30;95109.23;1578262;90;21231;-51
2022/10/20 03:57:23;;;;;;;14.45;12.15;;;;;;;6.01;87.71;95106.47;1566725;90;21108;-50
2022/10/20 03:59:50;;;;;;;18.77;12.63;;;;;;;5.97;87.56;95119.40;1570815;89;21251;-51
2022/10/20 04:02:34;;;;;;;23.73;16.35;;;;;;;5.89;87.13;95115.19;1574122;89;21095;-52
2022/10/20 04:05:02;;;;;;;10.43;8.80;;;;;;;5.81;87.23;95119.95;1575054;89;21276;-52
2022/10/20 04:07:29;;;;;;;29.87;15.83;;;;;;;5.78;87.43;95113.16;1574135;89;21149;-51
2022/10/20 04:09:56;;;;;;;15.30;10.82;;;;;;;5.74;87.32;95105.58;1571261;90;21020;-50
2022/10/20 04:12:23;;;;;;;11.88;8.78;;;;;;;5.72;87.38;95114.19;1569251;91;21063;-50
2022/10/20 04:14:51;;;;;;;9.60;6.58;;;;;;;5.72;87.99;95106.58;1571175;90;21099;-50
2022/10/20 04:17:19;;;;;;;7.50;6.12;;;;;;;5.74;87.96;95114.55;1551276;90;21554;-51
2022/10/20 04:19:47;;;;;;;11.12;6.25;;;;;;;5.71;87.82;95119.47;1574496;89;21865;-52
2022/10/20 04:22:15;;;;;;;19.92;11.12;;;;;;;5.71;87.81;95126.29;1571049;89;21060;-51
2022/10/20 04:24:43;;;;;;;26.55;15.90;;;;;;;5.71;87.69;95130.95;1575084;89;21061;-51
2022/10/20 04:27:10;;;;;;;17.42;11.78;;;;;;;5.74;88.16;95130.93;1576678;90;21119;-51
2022/10/20 04:29:37;;;;;;;19.12;11.25;;;;;;;5.77;87.82;95134.81;1581172;90;21062;-51
2022/10/20 04:32:04;;;;;;;18.27;11.70;;;;;;;5.72;88.11;95142.06;1572953;89;22052;-51
2022/10/20 04:34:31;;;;;;;20.77;15.23;;;;;;;5.71;88.15;95127.66;1550504;91;21083;-51
2022/10/20 04:36:58;;;;;;;15.80;11.03;;;;;;;5.74;88.36;95124.68;1580987;89;21211;-51
2022/10/20 04:39:25;;;;;;;10.43;8.60;;;;;;;5.76;88.10;95120.98;1578816;89;21030;-53
2022/10/20 04:41:52;;;;;;;10.30;7.37;;;;;;;5.75;87.71;95126.26;1581480;90;21507;-54
2022/10/20 04:44:19;;;;;;;8.45;6.95;;;;;;;5.74;88.00;95124.68;1573272;89;21500;-53
2022/10/20 04:46:45;;;;;;;10.90;7.83;;;;;;;5.71;87.78;95120.04;1580555;90;21534;-52
2022/10/20 04:49:13;;;;;;;9.08;8.15;;;;;;;5.70;88.35;95123.95;1574926;89;21036;-53
2022/10/20 04:51:40;;;;;;;9.65;7.65;;;;;;;5.78;88.37;95128.17;1557500;90;21078;-53
2022/10/20 04:54:06;;;;;;;11.57;8.00;;;;;;;5.78;87.78;95122.71;1574154;90;21007;-55
2022/10/20 04:56:34;;;;;;;10.68;8.80;;;;;;;5.75;87.84;95125.66;1571352;89;21424;-52
2022/10/20 04:59:02;;;;;;;13.15;8.45;;;;;;;5.73;87.77;95129.95;1578458;89;21070;-53
2022/10/20 05:01:30;;;;;;;6.62;5.70;;;;;;;5.74;87.74;95128.78;1560012;90;21035;-53
2022/10/20 05:03:57;;;;;;;7.67;6.53;;;;;;;5.75;87.52;95138.55;1558350;90;21147;-53
2022/10/20 05:06:31;;;;;;;8.28;6.75;;;;;;;5.79;86.96;95140.67;1584065;90;21117;-52
2022/10/20 05:09:01;;;;;;;7.25;6.55;;;;;;;5.77;86.64;95143.00;1576727;90;21269;-50
2022/10/20 05:11:29;;;;;;;9.30;8.40;;;;;;;5.76;86.38;95153.73;1533107;91;21386;-51
2022/10/20 05:13:57;;;;;;;36.65;23.95;;;;;;;5.76;86.04;95149.64;1534886;92;21004;-52
2022/10/20 05:16:24;;;;;;;20.50;14.58;;;;;;;5.76;85.77;95158.59;1537305;92;21022;-51
2022/10/20 05:18:52;;;;;;;15.85;10.98;;;;;;;5.86;85.05;95161.84;1571857;90;21657;-53
2022/10/20 05:21:23;;;;;;;13.05;11.18;;;;;;;5.90;84.35;95159.84;1576486;90;21860;-52
2022/10/20 05:23:56;;;;;;;23.35;18.80;;;;;;;5.90;83.64;95164.52;1577841;89;21544;-51
2022/10/20 05:26:23;;;;;;;14.98;11.50;;;;;;;5.88;82.59;95169.03;1575242;89;21603;-51
2022/10/20 05:28:50;;;;;;;8.88;7.40;;;;;;;5.84;81.68;95167.52;1576042;89;21658;-53
2022/10/20 05:31:20;;;;;;;12.05;8.78;;;;;;;5.89;80.58;95170.58;1555657;90;21194;-52
2022/10/20 05:33:50;;;;;;;16.45;11.03;;;;;;;5.96;79.42;95183.39;1580837;90;21846;-51
2022/10/20 05:36:20;;;;;;;9.88;8.18;;;;;;;5.91;78.70;95179.14;1575813;89;21235;-55
2022/10/20 05:38:47;;;;;;;6.10;5.50;;;;;;;5.84;78.64;95181.16;1548301;91;21129;-54
2022/10/20 05:41:18;;;;;;;8.25;5.35;;;;;;;5.85;78.89;95182.71;1534754;91;21565;-54
2022/10/20 05:43:58;;;;;;;4.35;4.05;;;;;;;5.92;78.58;95184.78;1535294;91;21123;-58
2022/10/20 05:46:27;;;;;;;4.72;4.33;;;;;;;5.93;78.87;95180.87;1546109;89;22150;-53
2022/10/20 05:48:57;;;;;;;5.30;4.42;;;;;;;5.97;78.92;95185.69;1573014;88;21201;-55
2022/10/20 05:51:26;;;;;;;20.32;15.08;;;;;;;6.04;78.84;95199.86;1570755;89;21673;-51
2022/10/20 05:53:55;;;;;;;17.55;11.57;;;;;;;6.10;78.53;95200.95;1547625;90;21197;-53
2022/10/20 05:56:23;;;;;;;17.60;11.70;;;;;;;6.16;78.69;95208.91;1579441;88;21058;-55
2022/10/20 05:58:49;;;;;;;16.42;11.45;;;;;;;6.33;78.33;95203.83;1579290;88;21274;-58
2022/10/20 06:01:22;;;;;;;15.20;11.25;;;;;;;6.53;77.93;95207.48;1549740;89;20986;-55
2022/10/20 06:03:51;;;;;;;16.42;10.98;;;;;;;6.71;77.64;95214.87;1574830;87;21119;-54
2022/10/20 06:06:20;;;;;;;20.23;12.90;;;;;;;6.87;77.71;95217.78;1571456;89;21053;-55
2022/10/20 06:08:47;;;;;;;10.63;9.13;;;;;;;7.04;77.91;95223.59;1570571;88;21584;-54
2022/10/20 06:11:16;;;;;;;22.90;15.30;;;;;;;7.21;77.69;95236.42;1550445;89;21374;-58
2022/10/20 06:13:43;;;;;;;15.05;11.28;;;;;;;7.39;77.37;95232.83;1577089;89;21141;-54
2022/10/20 06:16:15;;;;;;;19.45;12.88;;;;;;;7.64;76.27;95230.45;1567813;89;21556;-58
2022/10/20 06:18:42;;;;;;;14.30;9.65;;;;;;;7.88;75.67;95229.26;1570655;88;21126;-59
2022/10/20 06:21:14;;;;;;;11.43;8.50;;;;;;;8.10;75.43;95235.14;1573700;89;21081;-55
2022/10/20 06:23:42;;;;;;;;;;;;;;;8.28;73.51;95232.88;1586096;88;21283;-56
2022/10/20 06:26:21;;;;;;;10.70;7.40;;;;;;;8.36;72.51;95233.70;1562282;89;20189;-56
2022/10/20 06:28:55;;;;;;;35.58;20.52;;;;;;;8.29;71.37;95236.55;1551185;89;21322;-55
2022/10/20 06:31:27;;;;;;;13.15;9.63;;;;;;;8.22;70.44;95236.70;1538156;91;21139;-55
2022/10/20 06:33:56;;;;;;;14.68;9.75;;;;;;;8.13;69.74;95233.72;1517350;93;22661;-57
2022/10/20 06:36:24;;;;;;;72.42;40.45;;;;;;;8.08;67.25;95238.91;1513396;92;22343;-54
2022/10/20 06:38:58;;;;;;;77.20;50.35;;;;;;;7.94;65.81;95238.56;1524739;92;21136;-55
2022/10/20 06:41:26;;;;;;;23.60;18.02;;;;;;;7.84;65.37;95247.72;1515135;93;21381;-54
2022/10/20 06:43:57;;;;;;;69.55;45.15;;;;;;;7.78;63.66;95243.13;1523207;91;21103;-55
2022/10/20 06:46:23;;;;;;;19.85;14.68;;;;;;;7.67;62.64;95248.79;1511213;91;21094;-57
2022/10/20 06:48:50;;;;;;;30.90;22.07;;;;;;;7.51;62.40;95247.28;1522297;91;21650;-56
2022/10/20 06:51:18;;;;;;;33.25;20.72;;;;;;;7.37;62.38;95263.92;1489256;94;21293;-56
2022/10/20 06:53:45;;;;;;;13.35;8.10;;;;;;;7.28;61.83;95260.94;1510609;92;21070;-55
2022/10/20 06:56:16;;;;;;;12.35;8.28;;;;;;;7.20;61.95;95262.82;1530220;92;21157;-60
2022/10/20 06:58:46;;;;;;;36.93;26.95;;;;;;;7.13;61.88;95267.80;1520216;92;21120;-56
2022/10/20 07:01:22;;;;;;;14.43;11.38;;;;;;;7.12;62.21;95265.48;1471161;95;21284;-57
2022/10/20 07:03:52;;;;;;;25.23;17.27;;;;;;;7.16;61.32;95258.76;1490490;93;22731;-56
2022/10/20 07:06:28;;;;;;;8.20;5.50;;;;;;;7.24;61.17;95264.91;1574248;89;21650;-56
2022/10/20 07:08:56;;;;;;;6.22;5.40;;;;;;;7.30;61.25;95264.03;1592561;88;21146;-59
2022/10/20 07:11:27;;;;;;;7.87;7.08;;;;;;;7.41;61.55;95268.77;1541316;91;21082;-56
2022/10/20 07:13:57;;;;;;;10.25;8.40;;;;;;;7.54;60.03;95262.88;1568268;88;21369;-57
2022/10/20 07:16:28;;;;;;;17.48;14.50;;;;;;;7.63;58.71;95266.45;1563886;89;21089;-56
2022/10/20 07:18:56;;;;;;;11.12;8.53;;;;;;;7.69;58.16;95272.42;1522132;92;21090;-57
2022/10/20 07:21:26;;;;;;;9.45;7.72;;;;;;;7.77;57.94;95270.34;1581780;88;21045;-58
2022/10/20 07:23:55;;;;;;;14.53;11.97;;;;;;;7.83;57.42;95269.45;1571142;89;21713;-55
2022/10/20 07:26:28;;;;;;;4.65;4.25;;;;;;;7.86;55.97;95269.98;1578136;89;21304;-56
2022/10/20 07:28:57;;;;;;;16.48;9.85;;;;;;;7.92;56.38;95271.66;1543063;90;21116;-57
2022/10/20 07:31:35;;;;;;;6.00;4.10;;;;;;;8.04;56.67;95277.92;1544176;91;21514;-56
2022/10/20 07:34:03;;;;;;;9.00;7.03;;;;;;;8.15;56.10;95277.13;1576978;88;21171;-58
2022/10/20 07:36:34;;;;;;;6.30;5.70;;;;;;;8.18;54.72;95282.58;1566464;89;21161;-58
2022/10/20 07:39:04;;;;;;;5.03;4.50;;;;;;;8.15;54.77;95282.03;1563943;89;21262;-56
2022/10/20 07:41:30;;;;;;;3.98;3.67;;;;;;;8.24;55.93;95285.02;1583892;88;21338;-59
2022/10/20 07:43:59;;;;;;;4.33;3.12;;;;;;;8.36;56.25;95279.52;1577021;89;21138;-58
2022/10/20 07:46:27;;;;;;;3.77;3.45;;;;;;;8.42;56.56;95276.48;1557579;89;21241;-57
2022/10/20 07:48:55;;;;;;;4.30;3.55;;;;;;;8.42;57.55;95276.48;1587806;89;21522;-57
2022/10/20 07:51:27;;;;;;;4.67;4.28;;;;;;;8.46;53.18;95286.17;1568033;89;21304;-61
2022/10/20 07:54:06;;;;;;;4.15;3.50;;;;;;;8.41;54.44;95285.29;1550521;91;22394;-58
2022/10/20 07:56:41;;;;;;;28.92;21.42;;;;;;;8.46;53.58;95293.02;1518291;92;21137;-59
2022/10/20 07:59:09;;;;;;;14.30;5.47;;;;;;;8.52;54.52;95294.10;1579394;88;21169;-59
2022/10/20 08:01:36;;;;;;;7.78;5.15;;;;;;;8.60;53.67;95287.28;1562211;89;21250;-56
2022/10/20 08:04:03;;;;;;;3.33;2.92;;;;;;;8.74;52.86;95287.59;1567050;89;21847;-60
2022/10/20 08:06:31;;;;;;;6.47;2.98;;;;;;;8.70;52.80;95295.12;1570485;89;21098;-57
2022/10/20 08:08:59;;;;;;;5.67;2.92;;;;;;;8.60;53.82;95290.02;1549113;90;21252;-57
2022/10/20 08:11:26;;;;;;;3.65;3.17;;;;;;;8.60;53.78;95290.63;1571348;89;21163;-56
2022/10/20 08:13:53;;;;;;;8.03;3.60;;;;;;;8.62;52.50;95293.72;1566999;89;21205;-52
2022/10/20 08:16:22;;;;;;;22.82;3.25;;;;;;;8.63;53.09;95298.02;1561816;89;21266;-56
2022/10/20 08:18:56;;;;;;;16.05;3.58;;;;;;;8.63;53.08;95300.75;1555824;89;21117;-59
2022/10/20 08:21:25;;;;;;;4.50;2.67;;;;;;;8.54;52.91;95297.20;1581898;88;21551;-56
2022/10/20 08:23:54;;;;;;;4.17;3.33;;;;;;;8.55;53.17;95296.58;1556167;89;21111;-55
2022/10/20 08:26:24;;;;;;;5.30;2.90;;;;;;;8.58;52.15;95293.78;1558978;90;21615;-54
2022/10/20 08:28:53;;;;;;;8.33;3.50;;;;;;;8.60;51.65;95292.77;1545920;90;21289;-56
2022/10/20 08:31:22;;;;;;;22.40;8.60;;;;;;;8.61;51.47;95292.94;1565353;88;21084;-53
2022/10/20 08:33:49;;;;;;;30.10;8.80;;;;;;;8.64;51.81;95294.83;1558915;89;22315;-55
2022/10/20 08:36:20;;;;;;;74.32;31.93;;;;;;;8.78;51.25;95300.05;1567624;89;21125;-57
2022/10/20 08:38:47;;;;;;;9.83;6.35;;;;;;;8.88;50.59;95301.21;1579865;88;21786;-57
2022/10/20 08:41:21;;;;;;;30.50;17.05;;;;;;;8.96;48.83;95301.84;1571061;89;21684;-58
2022/10/20 08:43:52;;;;;;;13.68;7.83;;;;;;;8.92;48.87;95296.41;1561958;88;21019;-57
2022/10/20 08:46:23;;;;;;;85.77;46.98;;;;;;;8.97;49.76;95301.43;1571915;89;21178;-56
2022/10/20 08:48:51;;;;;;;37.35;20.05;;;;;;;9.11;49.31;95301.73;1569935;89;21097;-56
2022/10/20 08:51:23;;;;;;;36.38;22.67;;;;;;;9.33;49.67;95301.45;1573147;88;21082;-58
2022/10/20 08:53:54;;;;;;;17.32;10.03;;;;;;;9.66;47.69;95311.30;1582977;88;21281;-56
2022/10/20 08:56:24;;;;;;;17.02;9.98;;;;;;;9.95;46.24;95306.70;1577191;88;21106;-53
2022/10/20 08:58:52;;;;;;;16.95;11.73;;;;;;;10.10;44.72;95310.66;1578031;88;21078;-54
2022/10/20 09:01:24;;;;;;;7.17;3.37;;;;;;;10.13;44.08;95303.72;1562272;89;21034;-55
2022/10/20 09:04:03;;;;;;;14.38;3.15;;;;;;;10.20;45.74;95294.52;1516330;92;21667;-56
2022/10/20 09:06:30;;;;;;;8.03;4.83;;;;;;;10.32;45.21;95303.45;1542216;90;21268;-55
2022/10/20 09:08:58;;;;;;;4.00;2.83;;;;;;;10.40;44.73;95302.05;1572387;89;21160;-56
2022/10/20 09:11:33;;;;;;;3.92;2.40;;;;;;;10.50;45.18;95291.39;1561460;89;21503;-60
2022/10/20 09:14:00;;;;;;;5.37;4.20;;;;;;;10.63;44.84;95296.33;1580079;89;21187;-57
2022/10/20 09:16:37;;;;;;;4.65;2.70;;;;;;;10.83;44.36;95298.50;1560910;90;21142;-59
2022/10/20 09:19:08;;;;;;;3.08;2.77;;;;;;;11.08;43.94;95295.84;1575122;89;22510;-58
2022/10/20 09:21:37;;;;;;;8.63;2.30;;;;;;;11.29;43.73;95296.61;1580627;88;21082;-57
2022/10/20 09:24:04;;;;;;;4.62;3.27;;;;;;;11.41;42.42;95297.84;1561472;88;21594;-58
2022/10/20 09:26:45;;;;;;;10.60;2.55;;;;;;;11.57;43.48;95310.94;1576164;89;21122;-57
2022/10/20 09:29:19;;;;;;;31.48;25.70;;;;;;;11.82;43.72;95302.70;1581960;87;21148;-56
2022/10/20 09:31:54;;;;;;;13.45;12.05;;;;;;;12.20;41.54;95305.41;1558949;89;22285;-57
2022/10/20 09:34:29;;;;;;;5.40;4.10;;;;;;;12.56;41.85;95310.08;1570200;88;21212;-57
2022/10/20 09:37:10;;;;;;;3.55;2.10;;;;;;;13.00;41.28;95299.90;1577495;88;21087;-57
2022/10/20 09:39:49;;;;;;;2.35;1.85;;;;;;;13.37;40.08;95308.01;1570633;89;21588;-56
2022/10/20 09:42:35;;;;;;;32.58;21.37;;;;;;;13.69;40.32;95301.27;1535854;90;21102;-57
2022/10/20 09:45:21;;;;;;;4.80;3.83;;;;;;;14.08;37.40;95303.28;1576238;89;21997;-58
2022/10/20 09:47:55;;;;;;;9.60;3.00;;;;;;;14.47;36.76;95297.11;1566730;88;21125;-64
2022/10/20 09:50:36;;;;;;;1.30;1.20;;;;;;;14.79;35.01;95302.72;1564071;89;21168;-55
2022/10/20 09:53:06;;;;;;;20.40;18.02;;;;;;;15.03;34.14;95297.47;1556077;89;21100;-54
2022/10/20 09:55:40;;;;;;;1.15;1.05;;;;;;;15.08;34.33;95309.95;1554336;89;21123;-55
2022/10/20 09:58:16;;;;;;;12.20;2.85;;;;;;;14.97;33.67;95297.94;1568428;88;21240;-58
2022/10/20 10:00:46;;;;;;;1.20;1.10;;;;;;;14.95;35.00;95305.16;1569435;90;21105;-57
2022/10/20 10:03:22;;;;;;;6.22;1.80;;;;;;;15.17;33.40;95303.78;1576356;88;21121;-55
2022/10/20 10:05:56;;;;;;;1.32;1.22;;;;;;;15.51;33.33;95302.71;1555095;90;21078;-56
2022/10/20 10:08:27;;;;;;;2.72;2.45;;;;;;;15.91;32.48;95305.36;1539790;91;21023;-57
2022/10/20 10:11:01;;;;;;;5.92;3.33;;;;;;;16.12;33.42;95300.18;1575754;89;21534;-57
2022/10/20 10:13:38;;;;;;;7.97;2.17;;;;;;;16.61;33.64;95301.97;1562413;90;21156;-57
2022/10/20 10:16:08;;;;;;;23.25;2.10;;;;;;;17.11;32.55;95300.37;1586158;89;21047;-55
2022/10/20 10:18:36;;;;;;;9.93;5.83;;;;;;;17.22;30.95;95285.91;1540256;91;21222;-56
2022/10/20 10:21:13;;;;;;;6.60;3.00;;;;;;;16.95;31.15;95293.09;1589012;88;21373;-57
2022/10/20 10:23:56;;;;;;;8.55;6.62;;;;;;;17.08;31.88;95297.79;1587634;88;21277;-56
2022/10/20 10:26:44;;;;;;;3.35;2.30;;;;;;;17.49;31.56;95299.62;1544403;91;21043;-56
2022/10/20 10:29:30;;;;;;;10.70;8.48;;;;;;;18.01;31.55;95295.98;1538022;90;21553;-55
2022/10/20 10:32:18;;;;;;;2.70;1.75;;;;;;;18.76;29.46;95295.63;1578390;89;21122;-56
2022/10/20 10:35:12;;;;;;;19.12;1.80;;;;;;;19.26;28.63;95292.86;1539656;91;21168;-55
2022/10/20 10:37:42;;;;;;;2.85;1.05;;;;;;;19.73;29.32;95288.15;1534856;91;21062;-60
2022/10/20 10:40:17;;;;;;;3.95;2.92;;;;;;;20.27;27.84;95287.12;1569292;89;21771;-56
2022/10/20 10:43:11;;;;;;;1.17;1.00;;;;;;;20.38;26.82;95287.22;1583099;88;21119;-58
2022/10/20 10:46:08;;;;;;;3.95;1.60;;;;;;;20.49;26.48;95270.50;1572132;89;22274;-57
2022/10/20 10:49:17;;;;;;;1.45;1.00;;;;;;;20.72;26.66;95274.98;1559569;89;21222;-59
2022/10/20 10:52:13;;;;;;;2.12;0.57;;;;;;;21.15;25.31;95273.69;1574951;89;21291;-59
2022/10/20 10:55:06;;;;;;;1.57;0.78;;;;;;;21.07;25.01;95263.60;1556558;89;21133;-57
2022/10/20 10:57:45;;;;;;;1.00;0.70;;;;;;;20.76;24.03;95272.71;1579383;89;21077;-59
2022/10/20 11:00:33;;;;;;;3.17;2.42;;;;;;;20.62;24.54;95269.45;1563758;89;21401;-61
2022/10/20 11:03:23;;;;;;;1.92;1.72;;;;;;;20.87;25.12;95258.80;1573048;88;21493;-57
2022/10/20 11:06:13;;;;;;;5.50;0.95;;;;;;;21.33;25.01;95257.84;1513546;90;21179;-56
2022/10/20 11:08:55;;;;;;;2.22;0.88;;;;;;;21.73;24.50;95249.83;1553904;89;21084;-60
2022/10/20 11:11:39;;;;;;;6.47;1.20;;;;;;;22.02;23.93;95246.52;1577780;89;21128;-55
2022/10/20 11:14:20;;;;;;;4.65;1.22;;;;;;;22.16;24.80;95252.52;1570595;89;21057;-57
2022/10/20 11:17:12;;;;;;;4.25;0.88;;;;;;;22.27;23.70;95248.31;1569510;89;21095;-59
2022/10/20 11:20:03;;;;;;;7.25;1.60;;;;;;;22.17;22.91;95252.64;1570754;89;21128;-53
2022/10/20 11:22:42;;;;;;;1.55;0.90;;;;;;;21.85;24.34;95242.95;1574068;88;21192;-49
2022/10/20 11:25:27;;;;;;;4.65;2.85;;;;;;;22.07;25.88;95240.92;1559862;89;21601;-58
2022/10/20 11:27:55;;;;;;;4.05;2.15;;;;;;;22.30;23.94;95243.83;1571149;89;21081;-62
2022/10/20 11:30:22;;;;;;;3.17;1.30;;;;;;;22.49;23.41;95249.06;1566658;88;21062;-57
2022/10/20 11:33:16;;;;;;;4.15;1.47;;;;;;;22.69;22.22;95241.75;1575764;89;21185;-57
2022/10/20 11:35:51;;;;;;;2.52;1.27;;;;;;;22.81;21.73;95243.25;1579580;88;21142;-57
2022/10/20 11:38:23;;;;;;;1.22;1.12;;;;;;;22.86;21.85;95244.52;1581564;88;21112;-56
2022/10/20 11:41:20;;;;;;;1.30;1.00;;;;;;;22.68;22.32;95237.42;1594023;88;21034;-55
2022/10/20 11:44:26;;;;;;;2.37;1.40;;;;;;;22.71;23.30;95235.64;1585604;89;21553;-57
2022/10/20 11:47:04;;;;;;;3.10;0.70;;;;;;;22.95;22.49;95235.80;1543092;90;21113;-58
2022/10/20 11:49:32;;;;;;;2.22;1.00;;;;;;;23.06;22.29;95237.18;1523779;92;21122;-57
2022/10/20 11:52:42;;;;;;;1.47;0.53;;;;;;;23.18;22.90;95230.28;1557337;90;21172;-62
2022/10/20 11:55:36;;;;;;;1.50;0.40;;;;;;;23.26;21.87;95223.60;1549143;90;21137;-57
2022/10/20 11:58:30;;;;;;;1.00;0.82;;;;;;;23.29;22.31;95234.42;1539734;90;21907;-57